< < Back
Terminal Aerodrome Forecast


Current Version              Previous Versions:   1  2  3  4  5  6  7  8  9  

Terminal Aerodrome Forecast

637
FTUS42 KMLB 272300
TAFDAB
TAF
KDAB 272327Z 2800/2824 26011KT P6SM SKC
     FM280200 33008KT P6SM SKC
     FM281500 35012KT P6SM SKC=



Latest METAR

953
SAUS80 KWBC 281200
MTRDAB
METAR KDAB 281153Z 31006KT 10SM FEW040 06/01 A3016 RMK AO2 SLP210
T00610006 10089 20056 53020


USA.gov is the U.S. government's official web portal to all federal, state and local government web resources and services.